Time;durP1;ratioP1;P1;durP2;ratioP2;P2;SDS_P1;SDS_P2;PMS_P1;PMS_P2;Temp;Humidity;BMP_temperature;BMP_pressure;BME280_temperature;BME280_humidity;BME280_pressure;Samples;Min_cycle;Max_cycle;Signal;HPM_P1;HPM_P2
2022/04/28 00:00:56;;;;;;;9.23;4.25;;;;;;;11.06;43.63;102806.63;5002144;28;118647;-79
2022/04/28 00:03:23;;;;;;;10.05;4.50;;;;;;;11.04;43.71;102802.25;4981988;28;119070;-77
2022/04/28 00:05:51;;;;;;;9.48;4.20;;;;;;;11.02;43.62;102812.88;4957149;28;123201;-78
2022/04/28 00:08:18;;;;;;;10.25;4.43;;;;;;;10.99;43.52;102812.03;4973923;28;124372;-77
2022/04/28 00:10:45;;;;;;;8.65;4.20;;;;;;;10.98;43.46;102811.19;4980204;28;119287;-78
2022/04/28 00:13:13;;;;;;;10.88;4.40;;;;;;;10.95;44.11;102810.34;4988977;28;119784;-78
2022/04/28 00:15:40;;;;;;;10.05;4.43;;;;;;;10.92;43.66;102811.25;4981608;28;124574;-78
2022/04/28 00:18:08;;;;;;;9.93;4.47;;;;;;;10.90;43.80;102813.03;4972099;28;123540;-78
2022/04/28 00:20:36;;;;;;;9.32;4.38;;;;;;;10.89;43.82;102813.97;4973837;28;118725;-78
2022/04/28 00:23:03;;;;;;;11.43;4.88;;;;;;;10.87;43.66;102813.09;4977614;28;119247;-77
2022/04/28 00:25:30;;;;;;;9.80;5.00;;;;;;;10.85;43.82;102814.88;4983162;28;123969;-78
2022/04/28 00:27:57;;;;;;;10.60;4.88;;;;;;;10.82;43.92;102809.63;4978520;28;123529;-79
2022/04/28 00:30:25;;;;;;;15.23;4.90;;;;;;;10.78;43.81;102814.09;4986359;28;119064;-78
2022/04/28 00:32:52;;;;;;;9.90;4.90;;;;;;;10.74;44.17;102812.41;4960439;28;118297;-78
2022/04/28 00:35:20;;;;;;;8.85;4.50;;;;;;;10.72;44.13;102814.19;4969529;28;123213;-80
2022/04/28 00:37:47;;;;;;;9.95;4.70;;;;;;;10.68;44.22;102813.34;4977268;28;124365;-78
2022/04/28 00:40:14;;;;;;;9.68;5.05;;;;;;;10.65;44.22;102813.38;4974602;28;118873;-78
2022/04/28 00:42:41;;;;;;;8.77;4.38;;;;;;;10.63;44.13;102815.19;4971943;28;119662;-78
2022/04/28 00:45:09;;;;;;;11.63;5.18;;;;;;;10.60;44.33;102809.91;4975889;28;124248;-78
2022/04/28 00:50:41;;;;;;;12.10;4.97;;;;;;;10.55;44.53;102817.06;4975524;28;119532;-78
2022/04/28 00:53:12;;;;;;;12.48;5.28;;;;;;;10.50;44.33;102813.59;4980916;28;118478;-77
2022/04/28 00:55:41;;;;;;;14.63;5.10;;;;;;;10.48;44.67;102815.41;4989028;28;123054;-78
2022/04/28 00:58:10;;;;;;;12.45;5.13;;;;;;;10.45;44.72;102820.72;4970956;28;123531;-78
2022/04/28 01:00:39;;;;;;;11.00;4.88;;;;;;;10.44;44.76;102824.28;4959004;28;120423;-77
2022/04/28 01:03:10;;;;;;;11.07;4.88;;;;;;;10.41;44.94;102813.72;4974986;28;118511;-78
2022/04/28 01:05:38;;;;;;;11.38;5.47;;;;;;;10.39;44.95;102815.50;4978856;28;123250;-78
2022/04/28 01:08:06;;;;;;;8.65;5.30;;;;;;;10.37;45.02;102817.31;4978846;28;123104;-78
2022/04/28 01:10:37;;;;;;;15.07;4.97;;;;;;;10.36;45.02;102820.84;4978347;28;118238;-78
2022/04/28 01:13:05;;;;;;;11.95;5.05;;;;;;;10.35;44.88;102813.81;4978626;28;119800;-77
2022/04/28 01:15:45;;;;;;;7.97;4.50;;;;;;;10.31;45.17;102819.13;4992646;28;123083;-77
2022/04/28 01:18:13;;;;;;;12.15;5.15;;;;;;;10.29;45.16;102815.59;4976395;28;122907;-77
2022/04/28 01:20:41;;;;;;;12.98;5.32;;;;;;;10.28;45.18;102815.59;4983558;28;120018;-78
2022/04/28 01:23:09;;;;;;;12.75;5.18;;;;;;;10.26;45.16;102820.91;4973457;28;118465;-77
2022/04/28 01:25:38;;;;;;;11.80;4.50;;;;;;;10.25;45.45;102819.16;4983403;28;123623;-78
2022/04/28 01:28:05;;;;;;;9.82;5.18;;;;;;;10.24;45.38;102817.41;4973259;28;122884;-77
2022/04/28 01:30:36;;;;;;;13.35;4.75;;;;;;;10.24;45.29;102822.69;4979004;28;118750;-77
2022/04/28 01:33:04;;;;;;;10.15;5.00;;;;;;;10.22;45.09;102824.50;4975103;28;118514;-78
2022/04/28 01:35:31;;;;;;;8.90;5.18;;;;;;;10.19;45.50;102819.25;4991775;28;124108;-77
2022/04/28 01:37:58;;;;;;;8.75;4.88;;;;;;;10.17;45.35;102815.75;4968301;28;123993;-77
2022/04/28 01:40:25;;;;;;;9.88;5.20;;;;;;;10.15;45.31;102809.56;4973259;28;119102;-78
2022/04/28 01:42:53;;;;;;;13.27;5.45;;;;;;;10.13;45.32;102811.34;4968324;28;117997;-78
2022/04/28 01:45:21;;;;;;;10.60;5.18;;;;;;;10.10;45.30;102814.06;4967603;28;123283;-77
2022/04/28 01:48:09;;;;;;;9.82;5.30;;;;;;;10.07;45.31;102817.59;4966929;28;124183;-77
2022/04/28 01:56:43;;;;;;;10.45;5.53;;;;;;;9.94;45.63;102819.53;4980725;28;124693;-78
2022/04/28 01:59:25;;;;;;;12.32;5.65;;;;;;;9.91;45.76;102818.69;4975163;28;123529;-78
2022/04/28 02:01:59;;;;;;;10.50;5.47;;;;;;;9.88;46.03;102818.69;4990707;28;118502;-78
2022/04/28 02:04:27;;;;;;;8.63;4.72;;;;;;;9.87;45.72;102811.63;4990638;28;118577;-78
2022/04/28 02:06:55;;;;;;;10.32;5.40;;;;;;;9.86;45.82;102810.78;4984163;28;122472;-78
2022/04/28 02:09:22;;;;;;;11.05;5.47;;;;;;;9.86;46.17;102816.06;4970114;28;123498;-81
2022/04/28 02:11:50;;;;;;;13.75;6.07;;;;;;;9.85;45.83;102818.72;4980396;28;119682;-79
2022/04/28 02:14:33;;;;;;;10.20;5.50;;;;;;;9.83;46.17;102821.41;4975522;28;118709;-78
2022/04/28 02:17:20;;;;;;;15.88;5.72;;;;;;;9.81;46.24;102825.81;4974283;28;123323;-78
2022/04/28 02:19:48;;;;;;;13.95;5.80;;;;;;;9.80;46.22;102824.06;4974363;28;122681;-78
2022/04/28 02:22:15;;;;;;;10.55;5.03;;;;;;;9.79;46.11;102824.09;4975254;28;118469;-79
2022/04/28 02:24:44;;;;;;;13.15;5.78;;;;;;;9.76;46.12;102827.66;4976564;28;118893;-78
2022/04/28 02:27:13;;;;;;;13.18;5.40;;;;;;;9.75;46.30;102833.81;4983143;28;125066;-78
2022/04/28 02:29:40;;;;;;;14.75;5.25;;;;;;;9.72;46.18;102831.22;4974857;28;123653;-78
2022/04/28 02:32:08;;;;;;;9.68;4.75;;;;;;;9.70;46.15;102830.31;4994086;28;118247;-77
2022/04/28 02:34:35;;;;;;;9.75;5.43;;;;;;;9.68;46.22;102824.19;4986847;28;119028;-77
2022/04/28 02:37:03;;;;;;;15.80;6.10;;;;;;;9.67;46.17;102827.72;4972695;28;123205;-78
2022/04/28 02:39:32;;;;;;;10.93;5.38;;;;;;;9.64;46.16;102825.09;4977292;28;123632;-77
2022/04/28 02:41:59;;;;;;;11.95;5.50;;;;;;;9.62;46.40;102824.25;4987591;28;120487;-78
2022/04/28 02:44:27;;;;;;;15.80;5.82;;;;;;;9.61;46.37;102825.16;4986897;28;119385;-78
2022/04/28 02:46:55;;;;;;;10.68;5.15;;;;;;;9.60;46.39;102828.66;4986415;28;123620;-78
2022/04/28 02:49:29;;;;;;;8.90;5.20;;;;;;;9.59;46.33;102827.81;5003472;28;123390;-78
2022/04/28 02:51:57;;;;;;;12.55;5.28;;;;;;;9.58;46.85;102825.16;4986037;28;119258;-78
2022/04/28 02:54:27;;;;;;;10.05;5.10;;;;;;;9.57;46.91;102833.97;4986835;28;118319;-78
2022/04/28 02:56:55;;;;;;;10.57;5.18;;;;;;;9.57;46.63;102829.59;5002691;28;123289;-79
2022/04/28 02:59:22;;;;;;;12.60;5.60;;;;;;;9.58;46.83;102825.16;4987272;28;123794;-77
2022/04/28 03:01:50;;;;;;;12.02;5.22;;;;;;;9.57;46.78;102826.03;4985296;28;118660;-78
2022/04/28 03:04:19;;;;;;;10.30;4.93;;;;;;;9.54;46.93;102830.47;4986845;28;118437;-78
2022/04/28 03:12:19;;;;;;;9.93;5.10;;;;;;;9.46;46.83;102827.03;4985672;28;119106;-78
2022/04/28 03:14:59;;;;;;;15.38;5.90;;;;;;;9.46;46.63;102827.03;4987324;28;118795;-78
2022/04/28 03:17:28;;;;;;;11.38;5.50;;;;;;;9.42;46.88;102820.00;4986751;28;124436;-78
2022/04/28 03:19:55;;;;;;;12.40;5.70;;;;;;;9.42;46.89;102827.03;4969351;28;123854;-78
2022/04/28 03:22:24;;;;;;;13.60;5.43;;;;;;;9.40;46.80;102827.09;4987205;28;119983;-78
2022/04/28 03:24:51;;;;;;;10.23;5.75;;;;;;;9.36;47.19;102833.25;4987146;28;118391;-77
2022/04/28 03:27:18;;;;;;;18.42;6.35;;;;;;;9.33;47.04;102828.88;4986096;28;124619;-78
2022/04/28 03:29:45;;;;;;;15.18;6.03;;;;;;;9.32;46.93;102834.19;4986138;28;122760;-80
2022/04/28 03:32:13;;;;;;;14.00;5.60;;;;;;;9.31;47.15;102835.09;4991644;28;119444;-78
2022/04/28 03:34:51;;;;;;;16.08;5.90;;;;;;;9.30;47.15;102828.03;4996367;28;119588;-77
2022/04/28 03:37:18;;;;;;;14.48;6.05;;;;;;;9.29;47.37;102828.94;4995638;28;124221;-77
2022/04/28 03:39:46;;;;;;;14.07;5.90;;;;;;;9.27;47.33;102834.22;4977370;28;122706;-78
2022/04/28 03:42:17;;;;;;;12.75;5.82;;;;;;;9.25;47.16;102833.38;4991966;28;119046;-78
2022/04/28 03:44:45;;;;;;;10.73;5.80;;;;;;;9.23;46.79;102828.97;4971571;28;117879;-78
2022/04/28 03:47:14;;;;;;;13.45;5.97;;;;;;;9.19;47.45;102832.53;4986504;28;123761;-79
2022/04/28 03:49:42;;;;;;;12.85;6.07;;;;;;;9.16;47.35;102831.66;4988274;28;124085;-78
2022/04/28 03:52:09;;;;;;;13.32;6.20;;;;;;;9.14;47.45;102830.78;4985888;28;118164;-78
2022/04/28 03:54:37;;;;;;;11.20;6.00;;;;;;;9.12;47.28;102835.22;4970011;28;118073;-79
2022/04/28 03:57:06;;;;;;;11.40;6.10;;;;;;;9.12;47.22;102832.56;4985141;28;123770;-78
2022/04/28 03:59:34;;;;;;;12.23;6.00;;;;;;;9.10;47.39;102834.34;4985623;28;123769;-78
2022/04/28 04:02:01;;;;;;;13.13;6.35;;;;;;;9.09;47.23;102831.72;4986635;28;119989;-78
2022/04/28 04:04:28;;;;;;;10.68;6.30;;;;;;;9.08;47.61;102841.41;4985557;28;118710;-78
2022/04/28 04:06:59;;;;;;;11.43;6.03;;;;;;;9.05;47.70;102841.44;4984785;28;123658;-78
2022/04/28 04:09:46;;;;;;;14.50;6.60;;;;;;;9.03;47.81;102843.19;4985273;28;123238;-78
2022/04/28 04:12:34;;;;;;;16.65;6.40;;;;;;;9.02;47.55;102841.44;4985144;28;118457;-78
2022/04/28 04:15:10;;;;;;;10.80;6.20;;;;;;;9.01;47.66;102844.97;4987215;28;119595;-78
2022/04/28 04:17:52;;;;;;;15.73;6.30;;;;;;;9.01;47.75;102849.41;4988075;28;124405;-78
2022/04/28 04:20:23;;;;;;;14.48;6.05;;;;;;;9.00;47.85;102845.84;4984671;28;122951;-78
2022/04/28 04:22:50;;;;;;;14.77;6.32;;;;;;;9.03;47.65;102852.91;4977942;28;120559;-78
2022/04/28 04:25:18;;;;;;;15.07;6.78;;;;;;;9.02;47.65;102854.66;4986147;28;118467;-78
2022/04/28 04:27:49;;;;;;;18.45;6.45;;;;;;;9.02;47.58;102862.56;4987392;28;123028;-78
2022/04/28 04:33:36;;;;;;;13.55;6.50;;;;;;;8.98;47.67;102855.56;4985794;28;119509;-78
2022/04/28 04:36:06;;;;;;;15.65;6.47;;;;;;;8.95;47.83;102858.25;4969382;28;118130;-79
2022/04/28 04:38:33;;;;;;;14.23;6.40;;;;;;;8.93;47.94;102857.38;4986118;28;123579;-78
2022/04/28 04:41:01;;;;;;;13.80;6.28;;;;;;;8.94;47.75;102853.81;4990920;28;123108;-78
2022/04/28 04:43:29;;;;;;;11.93;6.32;;;;;;;8.93;47.86;102857.38;4987095;28;118775;-78
2022/04/28 04:45:57;;;;;;;17.65;6.80;;;;;;;8.93;48.28;102852.09;4986459;28;118173;-78
2022/04/28 04:48:42;;;;;;;15.02;6.38;;;;;;;8.92;48.26;102852.97;4988305;28;124116;-78
2022/04/28 04:51:30;;;;;;;14.60;6.32;;;;;;;8.92;48.01;102860.88;4998896;28;123898;-79
2022/04/28 04:54:11;;;;;;;13.57;6.82;;;;;;;8.92;48.38;102866.19;4983939;28;118728;-77
2022/04/28 04:56:38;;;;;;;14.32;6.63;;;;;;;8.92;48.39;102860.88;4984929;28;117361;-78
2022/04/28 04:59:06;;;;;;;12.60;6.32;;;;;;;8.93;48.54;102862.66;4984458;28;122178;-77
2022/04/28 05:01:33;;;;;;;14.38;6.38;;;;;;;8.93;48.28;102870.59;4985963;28;123053;-78
2022/04/28 05:04:32;;;;;;;15.70;6.70;;;;;;;8.94;48.64;102874.97;4942066;28;119911;-77
2022/04/28 05:07:19;;;;;;;16.33;6.93;;;;;;;8.94;48.32;102881.13;4971669;28;119801;-78
2022/04/28 05:09:47;;;;;;;13.35;7.25;;;;;;;8.95;48.66;102889.97;4965884;28;124360;-76
2022/04/28 05:12:14;;;;;;;15.77;6.47;;;;;;;8.97;48.60;102882.91;4978885;28;122854;-79
2022/04/28 05:14:49;;;;;;;12.63;6.65;;;;;;;8.99;48.60;102893.47;4986739;28;118980;-78
2022/04/28 05:17:18;;;;;;;16.25;6.32;;;;;;;9.02;48.71;102899.59;4984760;28;118626;-78
2022/04/28 05:20:13;;;;;;;16.90;6.78;;;;;;;9.06;48.95;102890.78;4961223;28;125271;-78
2022/04/28 05:22:58;;;;;;;15.75;7.30;;;;;;;9.10;49.04;102892.50;4980647;28;123988;-79
2022/04/28 05:25:46;;;;;;;16.55;7.07;;;;;;;9.14;48.54;102904.81;4967542;28;118267;-78
2022/04/28 05:28:31;;;;;;;15.15;7.28;;;;;;;9.16;48.96;102903.03;4970877;28;120276;-78
2022/04/28 05:31:18;;;;;;;15.00;6.25;;;;;;;9.20;48.91;102903.03;4981325;28;126449;-78
2022/04/28 05:34:03;;;;;;;11.25;6.38;;;;;;;9.23;49.16;102908.28;4984716;28;123098;-80
2022/04/28 05:36:37;;;;;;;14.35;7.13;;;;;;;9.26;49.37;102914.44;4984981;28;119118;-78
2022/04/28 05:39:05;;;;;;;14.48;6.75;;;;;;;9.33;49.36;102920.56;4984954;28;118413;-78
2022/04/28 05:41:33;;;;;;;19.77;7.30;;;;;;;9.37;49.25;102911.72;4968480;28;124575;-78
2022/04/28 05:46:46;;;;;;;;;;;;;;;9.47;48.96;102918.69;4968581;28;119500;-78
2022/04/28 05:49:13;;;;;;;19.33;7.22;;;;;;;9.52;49.10;102916.91;4969843;28;118861;-79
2022/04/28 05:51:42;;;;;;;17.58;7.75;;;;;;;9.59;49.63;102927.44;4967369;28;122922;-78
2022/04/28 05:54:11;;;;;;;16.52;7.50;;;;;;;9.64;49.91;102917.69;4968069;28;122893;-78
2022/04/28 05:56:38;;;;;;;14.80;7.30;;;;;;;9.70;49.90;102925.59;4968120;28;118731;-79
2022/04/28 05:59:10;;;;;;;19.15;7.22;;;;;;;9.77;50.23;102926.44;4984972;28;118965;-79
2022/04/28 06:01:39;;;;;;;16.77;7.47;;;;;;;9.84;50.09;102929.00;4968528;28;124699;-79
2022/04/28 06:04:10;;;;;;;21.67;7.57;;;;;;;9.92;50.25;102932.44;4967812;28;121981;-79
2022/04/28 06:06:40;;;;;;;14.25;6.75;;;;;;;9.99;50.46;102932.44;4951272;28;120907;-78
2022/04/28 06:09:17;;;;;;;13.60;7.00;;;;;;;10.08;50.23;102937.63;4984597;28;119242;-78
2022/04/28 06:11:44;;;;;;;16.85;7.40;;;;;;;10.16;50.14;102940.22;4967390;28;123359;-78
2022/04/28 06:14:11;;;;;;;16.73;7.22;;;;;;;10.23;50.18;102942.78;4983751;28;123628;-79
2022/04/28 06:16:57;;;;;;;18.77;7.18;;;;;;;10.31;49.66;102946.25;4968406;28;119961;-78
2022/04/28 06:19:26;;;;;;;14.57;7.03;;;;;;;10.40;49.98;102941.78;4984180;28;118650;-78
2022/04/28 06:22:03;;;;;;;17.05;7.55;;;;;;;10.48;50.04;102947.84;4968525;28;124920;-78
2022/04/28 06:24:34;;;;;;;13.55;7.07;;;;;;;10.57;50.14;102947.75;4989002;28;123131;-78
2022/04/28 06:27:03;;;;;;;15.18;7.18;;;;;;;10.66;50.12;102947.66;4987291;28;118712;-79
2022/04/28 06:29:31;;;;;;;16.35;7.07;;;;;;;10.77;49.83;102954.59;4987019;28;118272;-78
2022/04/28 06:32:01;;;;;;;14.27;6.85;;;;;;;10.87;49.70;102953.59;4980255;28;123755;-78
2022/04/28 06:34:47;;;;;;;;;;;;;;;10.98;49.56;102959.66;4976525;28;124379;-78
2022/04/28 06:37:15;;;;;;;19.70;7.43;;;;;;;11.12;49.33;102971.84;4984931;28;119141;-78
2022/04/28 06:39:47;;;;;;;16.52;6.93;;;;;;;11.24;49.40;102967.22;4978056;28;118672;-78
2022/04/28 06:42:14;;;;;;;13.65;7.07;;;;;;;11.35;49.58;102964.44;4990567;28;123260;-78
2022/04/28 06:45:04;;;;;;;14.48;7.22;;;;;;;11.49;49.48;102967.78;4976679;28;124562;-78
2022/04/28 06:47:57;;;;;;;16.35;7.40;;;;;;;11.63;49.08;102964.03;4964070;28;118794;-78
2022/04/28 06:50:39;;;;;;;12.75;6.90;;;;;;;11.76;49.49;102965.59;4968543;28;119436;-78
2022/04/28 06:53:24;;;;;;;13.00;6.03;;;;;;;11.92;49.09;102968.03;4969509;28;124513;-79
2022/04/28 06:55:58;;;;;;;12.13;6.63;;;;;;;12.07;49.36;102975.75;4986127;28;122860;-79
2022/04/28 06:58:29;;;;;;;12.55;6.60;;;;;;;12.22;49.01;102975.50;4986471;28;119886;-78
2022/04/28 07:01:02;;;;;;;12.10;6.30;;;;;;;12.39;48.93;102979.63;4969841;28;119202;-78
2022/04/28 07:03:31;;;;;;;13.50;6.53;;;;;;;12.56;48.74;102974.84;4978079;28;123695;-79
2022/04/28 07:05:58;;;;;;;12.60;6.18;;;;;;;12.70;48.57;102971.94;5001511;28;123061;-78
2022/04/28 07:08:26;;;;;;;12.88;5.90;;;;;;;12.86;48.35;102977.81;4985276;28;117952;-78
2022/04/28 07:10:53;;;;;;;15.30;6.05;;;;;;;12.98;48.15;102977.59;4985984;28;118095;-78
2022/04/28 07:13:20;;;;;;;13.02;6.50;;;;;;;13.11;48.04;102977.31;4982086;28;123343;-78
2022/04/28 07:16:06;;;;;;;18.98;6.25;;;;;;;13.25;47.81;102985.88;4985473;28;125238;-78
2022/04/28 07:18:59;;;;;;;12.13;5.35;;;;;;;13.41;47.46;102986.44;4988184;28;119749;-78
2022/04/28 07:21:28;;;;;;;12.48;6.22;;;;;;;13.53;47.41;102985.31;4986690;28;119093;-78
2022/04/28 07:23:55;;;;;;;11.65;5.55;;;;;;;13.64;47.37;102985.94;4985197;28;123012;-78
2022/04/28 07:26:22;;;;;;;12.68;5.57;;;;;;;13.75;47.13;102991.88;4988173;28;123597;-79
2022/04/28 07:28:49;;;;;;;14.85;5.57;;;;;;;13.87;46.59;102995.16;4987243;28;119152;-79
2022/04/28 07:31:22;;;;;;;14.35;5.45;;;;;;;13.98;46.65;103001.09;4988293;28;119735;-76
2022/04/28 07:34:07;;;;;;;13.32;5.65;;;;;;;14.09;46.41;102996.38;4988456;28;124847;-78
2022/04/28 07:36:46;;;;;;;11.30;5.85;;;;;;;14.19;46.19;103000.53;4990517;28;124111;-77
2022/04/28 07:39:34;;;;;;;11.38;5.45;;;;;;;14.32;46.25;103002.91;4985058;28;120049;-78
2022/04/28 07:42:15;;;;;;;11.25;5.40;;;;;;;14.44;45.93;103013.22;4988088;28;118754;-77
2022/04/28 07:44:45;;;;;;;11.95;5.63;;;;;;;14.48;45.64;103009.56;4969874;28;124077;-78
2022/04/28 07:47:12;;;;;;;18.75;5.72;;;;;;;14.52;45.57;103005.91;4987563;28;124101;-77
2022/04/28 07:49:43;;;;;;;15.38;5.90;;;;;;;14.59;45.57;103007.50;4983024;28;120968;-78
2022/04/28 07:52:11;;;;;;;19.77;5.95;;;;;;;14.66;45.14;103012.69;4985718;28;119306;-78
2022/04/28 07:54:41;;;;;;;14.75;6.40;;;;;;;14.71;44.96;103005.44;4985921;28;123202;-77
2022/04/28 07:57:08;;;;;;;17.17;5.63;;;;;;;14.75;45.07;103015.97;4985709;28;123073;-77
2022/04/28 07:59:37;;;;;;;19.67;5.75;;;;;;;14.82;44.90;103014.00;4985891;28;118644;-78
2022/04/28 08:02:14;;;;;;;12.80;5.88;;;;;;;14.91;45.08;103016.41;4986087;28;118149;-78
2022/04/28 08:04:45;;;;;;;13.10;5.90;;;;;;;14.97;44.73;103018.94;4985921;28;123584;-78
2022/04/28 08:07:15;;;;;;;14.10;5.78;;;;;;;15.08;44.77;103015.06;4985807;28;122977;-77
2022/04/28 08:09:46;;;;;;;8.60;5.15;;;;;;;15.17;44.41;103014.78;5002222;28;118941;-77
2022/04/28 08:12:19;;;;;;;19.40;6.07;;;;;;;15.26;44.23;103019.00;4985945;28;118296;-78
2022/04/28 08:15:26;;;;;;;12.13;4.88;;;;;;;15.31;44.00;103014.38;4986748;28;124791;-78
2022/04/28 08:17:53;;;;;;;11.15;4.72;;;;;;;15.39;43.98;103015.03;4985151;28;123952;-78
2022/04/28 08:20:21;;;;;;;16.15;5.32;;;;;;;15.47;43.84;103017.47;4984739;28;118765;-78
2022/04/28 08:22:48;;;;;;;14.00;4.75;;;;;;;15.56;43.71;103022.53;4986420;28;118347;-78
2022/04/28 08:25:16;;;;;;;8.75;4.45;;;;;;;15.63;43.41;103024.06;4978837;28;123211;-78
2022/04/28 08:27:43;;;;;;;11.15;4.93;;;;;;;15.70;43.34;103030.97;4975801;28;123532;-78
2022/04/28 08:30:11;;;;;;;11.38;4.75;;;;;;;15.75;42.79;103034.41;4984146;28;118527;-78
2022/04/28 08:32:38;;;;;;;14.50;4.97;;;;;;;15.80;42.89;103041.41;4965705;28;118499;-77
2022/04/28 08:35:06;;;;;;;13.90;4.80;;;;;;;15.83;42.95;103041.31;4965240;28;124041;-78
2022/04/28 08:37:33;;;;;;;11.48;4.55;;;;;;;15.90;42.90;103034.84;4964900;28;123830;-77
2022/04/28 08:40:01;;;;;;;10.85;5.75;;;;;;;15.98;42.98;103034.59;4963488;28;119862;-78
2022/04/28 08:42:31;;;;;;;12.50;5.75;;;;;;;16.04;42.54;103040.59;4966395;28;120251;-77
2022/04/28 08:45:08;;;;;;;10.57;5.15;;;;;;;16.10;42.70;103035.03;4984944;28;123431;-77
2022/04/28 08:47:38;;;;;;;12.25;5.15;;;;;;;16.21;42.74;103041.84;4986945;28;124037;-76
2022/04/28 08:50:22;;;;;;;12.30;5.15;;;;;;;16.33;42.62;103046.75;4984562;28;118882;-77
2022/04/28 08:53:01;;;;;;;9.45;4.93;;;;;;;16.42;42.60;103046.44;4985032;28;118671;-76
2022/04/28 08:55:33;;;;;;;13.75;4.90;;;;;;;16.52;42.61;103050.56;4984175;28;124109;-77
2022/04/28 08:58:01;;;;;;;15.93;5.60;;;;;;;16.59;42.40;103043.19;4986584;28;124478;-77
2022/04/28 09:00:33;;;;;;;9.13;4.55;;;;;;;16.67;42.16;103045.59;4986760;28;119658;-76
2022/04/28 09:03:19;;;;;;;11.20;4.32;;;;;;;16.73;42.36;103045.41;5003715;28;119951;-76
2022/04/28 09:06:22;;;;;;;8.98;4.75;;;;;;;16.77;41.97;103041.69;4990038;28;124703;-76
2022/04/28 09:09:09;;;;;;;9.52;3.80;;;;;;;16.80;41.31;103041.59;4988868;28;122607;-76
2022/04/28 09:12:00;;;;;;;9.40;4.35;;;;;;;16.81;41.46;103037.97;4990636;28;120012;-77
2022/04/28 09:14:51;;;;;;;9.85;5.03;;;;;;;16.86;41.52;103036.03;4969448;28;119595;-77
2022/04/28 09:17:21;;;;;;;10.57;4.80;;;;;;;16.90;40.94;103037.66;4987921;28;123251;-77
2022/04/28 09:19:58;;;;;;;12.57;4.55;;;;;;;16.90;40.89;103031.44;4987178;28;123043;-77
2022/04/28 09:22:42;;;;;;;8.98;4.30;;;;;;;16.92;40.70;103030.44;4988456;28;119260;-77
2022/04/28 09:25:12;;;;;;;8.52;4.20;;;;;;;16.98;40.79;103033.84;4988824;28;118200;-77
2022/04/28 09:27:40;;;;;;;8.57;4.20;;;;;;;17.03;40.73;103027.38;4988344;28;124204;-77
2022/04/28 09:30:11;;;;;;;7.72;4.25;;;;;;;17.08;40.39;103035.22;4987745;28;123484;-77
2022/04/28 09:32:50;;;;;;;7.43;4.32;;;;;;;17.14;40.54;103026.97;4988270;28;119438;-78
2022/04/28 09:35:51;;;;;;;13.82;4.32;;;;;;;17.23;40.48;103029.28;4990599;28;120896;-77
2022/04/28 09:38:37;;;;;;;9.13;3.97;;;;;;;17.30;40.40;103025.44;4990089;28;124504;-76
2022/04/28 09:43:59;;;;;;;10.25;4.40;;;;;;;17.43;40.31;103024.97;5005793;28;119579;-78
2022/04/28 09:46:39;;;;;;;21.65;5.13;;;;;;;17.50;40.28;103026.50;4988136;28;118493;-77
2022/04/28 09:49:12;;;;;;;11.85;4.88;;;;;;;17.59;39.88;103022.56;4989838;28;124190;-77
2022/04/28 09:51:59;;;;;;;7.00;3.95;;;;;;;17.63;39.61;103026.84;4990025;28;124103;-77
2022/04/28 09:54:59;;;;;;;10.70;4.43;;;;;;;17.65;39.67;103015.16;4980790;28;119891;-78
2022/04/28 09:57:33;;;;;;;10.77;4.55;;;;;;;17.71;39.67;103014.91;4988582;28;118402;-77
2022/04/28 10:00:00;;;;;;;13.85;4.40;;;;;;;17.76;39.41;103017.38;4987881;28;123805;-77
2022/04/28 10:02:33;;;;;;;8.48;4.20;;;;;;;17.80;39.48;103008.31;4988905;28;123743;-78
2022/04/28 10:05:05;;;;;;;10.30;3.75;;;;;;;17.88;39.05;103010.69;4988935;28;119144;-76
2022/04/28 10:07:43;;;;;;;10.35;4.45;;;;;;;17.92;39.00;103006.09;4989975;28;118306;-76
2022/04/28 10:10:11;;;;;;;10.40;4.18;;;;;;;17.93;38.70;102997.94;4990233;28;122438;-77
2022/04/28 10:12:39;;;;;;;8.15;4.25;;;;;;;17.92;38.76;103001.59;4990504;28;122477;-77
2022/04/28 10:15:21;;;;;;;9.68;3.75;;;;;;;17.95;39.05;103001.47;4992261;28;119139;-77
2022/04/28 10:17:54;;;;;;;7.90;4.07;;;;;;;18.03;39.25;103009.19;4990756;28;119169;-77
2022/04/28 10:20:38;;;;;;;10.95;4.40;;;;;;;18.16;39.15;103009.53;4989760;28;123072;-78
2022/04/28 10:32:23;;;;;;;10.57;4.25;;;;;;;18.24;38.09;102997.53;4987814;28;124422;-77
2022/04/28 10:35:05;;;;;;;10.25;4.82;;;;;;;18.26;38.01;102992.97;4987108;28;124279;-77
2022/04/28 10:37:36;;;;;;;8.88;4.68;;;;;;;18.30;38.07;102991.03;4988842;28;118307;-77
2022/04/28 10:40:04;;;;;;;9.00;4.25;;;;;;;18.37;38.02;102992.53;5002964;28;119183;-78
2022/04/28 10:42:35;;;;;;;12.25;4.45;;;;;;;18.42;38.17;102990.53;4985708;28;124824;-78
2022/04/28 10:45:16;;;;;;;7.55;4.43;;;;;;;18.49;37.96;102983.91;4988882;28;123886;-78
2022/04/28 10:47:44;;;;;;;8.65;4.10;;;;;;;18.51;37.77;102993.72;4986477;28;118381;-79
2022/04/28 10:50:25;;;;;;;10.88;4.60;;;;;;;18.49;37.77;102986.59;4987622;28;118928;-77
2022/04/28 10:53:00;;;;;;;11.52;4.30;;;;;;;18.53;37.60;102991.84;4986603;28;123900;-77
2022/04/28 10:55:33;;;;;;;;;;;;;;;18.55;38.01;102984.59;4987625;28;124503;-77
2022/04/28 10:58:20;;;;;;;9.52;4.68;;;;;;;18.58;37.86;102981.78;4986555;28;118902;-78
2022/04/28 11:00:54;;;;;;;8.55;4.45;;;;;;;18.60;37.51;102977.22;4985598;28;119205;-76
2022/04/28 11:03:51;;;;;;;7.35;4.30;;;;;;;18.64;37.52;102984.19;4987311;28;123282;-77
2022/04/28 11:06:28;;;;;;;9.38;4.32;;;;;;;18.66;37.43;102982.28;4987619;28;123928;-77
2022/04/28 11:08:57;;;;;;;9.93;4.47;;;;;;;18.73;37.32;102977.53;4988130;28;119721;-77
2022/04/28 11:11:52;;;;;;;8.27;4.15;;;;;;;18.79;37.08;102983.47;4988189;28;118658;-78
2022/04/28 11:14:20;;;;;;;8.13;4.47;;;;;;;18.83;36.97;102979.75;4985580;28;124934;-77
2022/04/28 11:16:47;;;;;;;8.25;4.57;;;;;;;18.89;36.73;102977.72;4987872;28;123092;-78
2022/04/28 11:19:14;;;;;;;10.02;4.68;;;;;;;18.94;36.91;102964.97;4987353;28;120293;-78
2022/04/28 11:21:43;;;;;;;9.48;4.43;;;;;;;18.99;36.76;102962.94;4986552;28;119289;-78
2022/04/28 11:24:11;;;;;;;8.70;4.90;;;;;;;19.04;36.59;102966.25;4987520;28;123636;-78
2022/04/28 11:26:49;;;;;;;7.82;4.40;;;;;;;19.09;36.47;102969.63;4987690;28;124201;-77
2022/04/28 11:29:24;;;;;;;8.55;4.22;;;;;;;19.12;36.46;102961.41;4987605;28;118725;-78
2022/04/28 11:31:53;;;;;;;8.45;4.25;;;;;;;19.18;36.73;102962.94;4991708;28;119256;-77
2022/04/28 11:34:21;;;;;;;11.50;4.53;;;;;;;19.28;36.55;102971.44;4992939;28;124530;-77
2022/04/28 11:36:48;;;;;;;9.00;4.20;;;;;;;19.30;36.18;102961.47;4995095;28;124803;-77
2022/04/28 11:39:15;;;;;;;10.23;4.43;;;;;;;19.33;36.23;102966.72;5011079;28;118983;-77
2022/04/28 11:41:43;;;;;;;7.95;4.07;;;;;;;19.37;36.27;102969.16;4996140;28;119148;-77
2022/04/28 11:44:17;;;;;;;8.00;3.78;;;;;;;19.43;35.76;102962.63;5014355;28;96685;-72
2022/04/28 11:46:44;;;;;;;11.85;4.50;;;;;;;19.48;35.73;102971.34;5008825;28;107316;-72
2022/04/28 11:49:11;;;;;;;6.78;4.10;;;;;;;19.53;35.43;102961.22;5008848;28;124586;-72
2022/04/28 11:51:39;;;;;;;9.50;4.57;;;;;;;19.56;35.37;102963.75;5008695;28;124502;-72
2022/04/28 11:54:19;;;;;;;12.05;4.63;;;;;;;19.57;35.61;102965.53;5001902;28;107503;-72
2022/04/28 11:56:47;;;;;;;8.25;4.07;;;;;;;19.63;35.66;102959.84;4999746;28;107410;-72
2022/04/28 11:59:15;;;;;;;7.22;3.95;;;;;;;19.71;35.89;102966.66;4996489;28;124054;-72
2022/04/28 12:01:44;;;;;;;7.63;3.88;;;;;;;19.76;35.61;102964.63;4998047;28;122894;-72
2022/04/28 12:04:16;;;;;;;8.65;3.90;;;;;;;19.80;35.21;102966.22;4998707;28;108361;-72
2022/04/28 12:06:48;;;;;;;8.80;3.90;;;;;;;19.82;34.96;102969.72;4994303;28;107274;-72
2022/04/28 12:14:50;;;;;;;8.73;3.88;;;;;;;19.87;34.83;102961.38;5004755;28;107779;-68
2022/04/28 12:20:09;;;;;;;7.75;3.88;;;;;;;19.90;34.57;102962.09;4995198;28;124449;-69